createdAt,value
2016-07-26T00:00:15.686Z,957.06
2016-07-26T00:01:15.719Z,957.06
2016-07-26T00:02:15.744Z,957.09
2016-07-26T00:03:15.771Z,957.06
2016-07-26T00:04:15.804Z,957.06
2016-07-26T00:05:15.832Z,957.07
2016-07-26T00:06:15.861Z,957.05
2016-07-26T00:07:15.890Z,957.04
2016-07-26T00:08:15.918Z,957.02
2016-07-26T00:09:15.959Z,957.03
2016-07-26T00:10:15.979Z,957.03
2016-07-26T00:11:16.007Z,957.03
2016-07-26T00:12:16.046Z,957.02
2016-07-26T00:13:16.064Z,957.03
2016-07-26T00:14:16.095Z,957.04
2016-07-26T00:15:16.125Z,957.04
2016-07-26T00:16:16.154Z,957.02
2016-07-26T00:17:16.182Z,957.01
2016-07-26T00:18:16.212Z,957.03
2016-07-26T00:19:16.240Z,957.03
2016-07-26T00:20:16.270Z,957.06
2016-07-26T00:21:16.300Z,957.03
2016-07-26T00:22:16.334Z,957.05
2016-07-26T00:23:16.359Z,957.05
2016-07-26T00:24:16.386Z,957.02
2016-07-26T00:25:16.417Z,957.01
2016-07-26T00:26:16.446Z,957.01
2016-07-26T00:27:16.476Z,957.01
2016-07-26T00:28:16.505Z,957.01
2016-07-26T00:29:16.534Z,957.02
2016-07-26T00:30:16.564Z,956.98
2016-07-26T00:31:16.592Z,956.99
2016-07-26T00:32:16.622Z,957
2016-07-26T00:33:16.650Z,957.03
2016-07-26T00:34:16.680Z,957.07
2016-07-26T00:35:16.710Z,956.99
2016-07-26T00:36:16.760Z,957.03
2016-07-26T00:37:16.778Z,957.01
2016-07-26T00:38:16.797Z,957.05
2016-07-26T00:39:16.825Z,956.99
2016-07-26T00:40:16.858Z,957.02
2016-07-26T00:41:16.884Z,957
2016-07-26T00:42:16.912Z,956.98
2016-07-26T00:43:16.947Z,956.97
2016-07-26T00:44:16.982Z,956.98
2016-07-26T00:45:17.003Z,956.97
2016-07-26T00:46:17.031Z,956.98
2016-07-26T00:47:17.060Z,956.97
2016-07-26T00:48:17.090Z,956.96
2016-07-26T00:49:17.119Z,956.95
2016-07-26T00:50:17.149Z,956.95
2016-07-26T00:51:17.178Z,956.91
2016-07-26T00:52:17.212Z,956.89
2016-07-26T00:53:17.236Z,956.9
2016-07-26T00:54:17.266Z,956.88
2016-07-26T00:55:17.344Z,956.87
2016-07-26T00:56:17.324Z,956.84
2016-07-26T00:57:17.353Z,956.87
2016-07-26T00:58:17.382Z,956.81
2016-07-26T00:59:17.409Z,956.82
2016-07-26T01:00:17.438Z,956.85
2016-07-26T01:01:17.470Z,956.8
2016-07-26T01:02:17.500Z,956.8
2016-07-26T01:03:17.528Z,956.83
2016-07-26T01:04:17.557Z,956.82
2016-07-26T01:05:17.585Z,956.84
2016-07-26T01:06:17.615Z,956.83
2016-07-26T01:07:17.644Z,956.85
2016-07-26T01:08:17.673Z,956.84
2016-07-26T01:09:17.720Z,956.83
2016-07-26T01:10:17.732Z,956.83
2016-07-26T01:11:17.760Z,956.8
2016-07-26T01:12:17.789Z,956.79
2016-07-26T01:13:17.821Z,956.78
2016-07-26T01:14:17.850Z,956.78
2016-07-26T01:15:17.877Z,956.81
2016-07-26T01:16:17.907Z,956.74
2016-07-26T01:17:17.940Z,956.77
2016-07-26T01:18:17.968Z,956.74
2016-07-26T01:19:17.997Z,956.76
2016-07-26T01:20:18.025Z,956.74
2016-07-26T01:21:18.054Z,956.76
2016-07-26T01:22:18.082Z,956.77
2016-07-26T01:23:18.114Z,956.76
2016-07-26T01:24:18.142Z,956.78
2016-07-26T01:25:18.185Z,956.8
2016-07-26T01:26:18.209Z,956.8
2016-07-26T01:27:18.229Z,956.81
2016-07-26T01:28:18.286Z,956.81
2016-07-26T01:29:18.289Z,956.84
2016-07-26T01:30:18.319Z,956.83
2016-07-26T01:31:18.349Z,956.86
2016-07-26T01:32:18.376Z,956.84
2016-07-26T01:33:18.403Z,956.82
2016-07-26T01:34:18.435Z,956.81
2016-07-26T01:35:18.464Z,956.83
2016-07-26T01:36:18.494Z,956.82
2016-07-26T01:37:18.522Z,956.81
2016-07-26T01:38:18.551Z,956.83
2016-07-26T01:39:18.583Z,956.83
2016-07-26T01:40:18.611Z,956.83
2016-07-26T01:41:18.652Z,956.85
2016-07-26T01:42:18.670Z,956.86
2016-07-26T01:43:18.700Z,956.85
2016-07-26T01:44:18.729Z,956.83
2016-07-26T01:45:18.758Z,956.84
2016-07-26T01:46:18.843Z,956.82
2016-07-26T01:47:18.819Z,956.81
2016-07-26T01:48:18.846Z,956.82
2016-07-26T01:49:18.878Z,956.81
2016-07-26T01:50:18.904Z,956.81
2016-07-26T01:51:18.935Z,956.8
2016-07-26T01:52:18.963Z,956.76
2016-07-26T01:53:18.994Z,956.75
2016-07-26T01:54:19.021Z,956.76
2016-07-26T01:55:19.052Z,956.75
2016-07-26T01:56:19.080Z,956.75
2016-07-26T01:57:19.110Z,956.73
2016-07-26T01:58:19.141Z,956.71
2016-07-26T01:59:19.170Z,956.76
2016-07-26T02:00:19.199Z,956.75
2016-07-26T02:01:19.231Z,956.72
2016-07-26T02:02:19.258Z,956.74
2016-07-26T02:03:19.288Z,956.8
2016-07-26T02:04:19.316Z,956.76
2016-07-26T02:05:19.345Z,956.72
2016-07-26T02:06:19.397Z,956.74
2016-07-26T02:07:19.403Z,956.72
2016-07-26T02:08:19.434Z,956.75
2016-07-26T02:09:19.464Z,956.7
2016-07-26T02:10:19.493Z,956.72
2016-07-26T02:11:19.523Z,956.66
2016-07-26T02:12:19.552Z,956.67
2016-07-26T02:13:19.581Z,956.66
2016-07-26T02:14:19.614Z,956.7
2016-07-26T02:15:19.640Z,956.68
2016-07-26T02:16:19.670Z,956.7
2016-07-26T02:17:19.699Z,956.67
2016-07-26T02:18:19.729Z,956.69
2016-07-26T02:19:19.758Z,956.71
2016-07-26T02:20:19.788Z,956.72
2016-07-26T02:21:19.816Z,956.72
2016-07-26T02:22:19.852Z,956.7
2016-07-26T02:23:19.876Z,956.71
2016-07-26T02:24:19.905Z,956.68
2016-07-26T02:25:19.936Z,956.67
2016-07-26T02:26:19.986Z,956.68
2016-07-26T02:27:19.994Z,956.68
2016-07-26T02:28:20.023Z,956.65
2016-07-26T02:29:20.055Z,956.65
2016-07-26T02:30:20.104Z,956.66
2016-07-26T02:31:20.113Z,956.65
2016-07-26T02:32:20.143Z,956.64
2016-07-26T02:33:20.171Z,956.67
2016-07-26T02:34:20.200Z,956.65
2016-07-26T02:35:20.230Z,956.69
2016-07-26T02:36:20.264Z,956.66
2016-07-26T02:37:20.287Z,956.62
2016-07-26T02:38:20.419Z,956.64
2016-07-26T02:39:20.350Z,956.62
2016-07-26T02:40:20.376Z,956.66
2016-07-26T02:41:20.408Z,956.6
2016-07-26T02:42:20.436Z,956.6
2016-07-26T02:43:20.466Z,956.59
2016-07-26T02:44:20.494Z,956.6
2016-07-26T02:45:20.525Z,956.63
2016-07-26T02:46:20.561Z,956.59
2016-07-26T02:47:20.583Z,956.64
2016-07-26T02:48:20.612Z,956.62
2016-07-26T02:49:20.642Z,956.63
2016-07-26T02:50:20.671Z,956.63
2016-07-26T02:51:20.711Z,956.62
2016-07-26T02:52:20.730Z,956.66
2016-07-26T02:53:20.760Z,956.67
2016-07-26T02:54:20.789Z,956.69
2016-07-26T02:55:20.819Z,956.71
2016-07-26T02:56:20.848Z,956.68
2016-07-26T02:57:20.880Z,956.67
2016-07-26T02:58:20.908Z,956.68
2016-07-26T02:59:20.937Z,956.64
2016-07-26T03:00:20.966Z,956.66
2016-07-26T03:01:20.994Z,956.64
2016-07-26T03:02:21.024Z,956.64
2016-07-26T03:03:21.072Z,956.62
2016-07-26T03:04:21.084Z,956.64
2016-07-26T03:05:21.113Z,956.62
2016-07-26T03:06:21.141Z,956.61
2016-07-26T03:07:21.171Z,956.6
2016-07-26T03:08:21.199Z,956.62
2016-07-26T03:09:21.229Z,956.63
2016-07-26T03:10:21.259Z,956.61
2016-07-26T03:11:21.289Z,956.63
2016-07-26T03:12:21.318Z,956.62
2016-07-26T03:13:21.349Z,956.68
2016-07-26T03:14:21.376Z,956.62
2016-07-26T03:15:21.406Z,956.67
2016-07-26T03:16:21.435Z,956.7
2016-07-26T03:17:21.463Z,956.67
2016-07-26T03:18:21.495Z,956.69
2016-07-26T03:19:21.523Z,956.68
2016-07-26T03:20:21.553Z,956.69
2016-07-26T03:21:21.582Z,956.71
2016-07-26T03:22:21.612Z,956.71
2016-07-26T03:23:21.641Z,956.69
2016-07-26T03:24:21.676Z,956.71
2016-07-26T03:25:21.700Z,956.71
2016-07-26T03:26:21.729Z,956.73
2016-07-26T03:27:21.758Z,956.71
2016-07-26T03:28:21.788Z,956.75
2016-07-26T03:29:21.818Z,956.7
2016-07-26T03:30:21.846Z,956.72
2016-07-26T03:31:21.875Z,956.75
2016-07-26T03:32:21.906Z,956.75
2016-07-26T03:33:21.935Z,956.76
2016-07-26T03:34:21.964Z,956.73
2016-07-26T03:35:22.003Z,956.74
2016-07-26T03:36:22.023Z,956.74
2016-07-26T03:37:22.052Z,956.75
2016-07-26T03:38:22.080Z,956.76
2016-07-26T03:39:22.110Z,956.78
2016-07-26T03:40:22.140Z,956.78
2016-07-26T03:41:22.168Z,956.78
2016-07-26T03:42:22.198Z,956.77
2016-07-26T03:43:22.230Z,956.75
2016-07-26T03:44:22.257Z,956.74
2016-07-26T03:45:22.286Z,956.78
2016-07-26T03:46:22.316Z,956.75
2016-07-26T03:47:22.346Z,956.73
2016-07-26T03:48:22.375Z,956.76
2016-07-26T03:49:22.402Z,956.77
2016-07-26T03:50:22.433Z,956.77
2016-07-26T03:51:22.476Z,956.75
2016-07-26T03:52:22.492Z,956.79
2016-07-26T03:53:22.521Z,956.81
2016-07-26T03:54:22.550Z,956.76
2016-07-26T03:55:22.630Z,956.78
2016-07-26T03:56:22.609Z,956.76
2016-07-26T03:57:22.639Z,956.77
2016-07-26T03:58:22.667Z,956.76
2016-07-26T03:59:22.698Z,956.79
2016-07-26T04:00:22.743Z,956.8
2016-07-26T04:01:22.758Z,956.79
2016-07-26T04:02:22.788Z,956.81
2016-07-26T04:03:22.815Z,956.81
2016-07-26T04:04:22.845Z,956.76
2016-07-26T04:05:22.873Z,956.79
2016-07-26T04:06:22.904Z,956.79
2016-07-26T04:07:22.933Z,956.77
2016-07-26T04:08:22.970Z,956.75
2016-07-26T04:09:22.992Z,956.77
2016-07-26T04:10:23.021Z,956.75
2016-07-26T04:11:23.050Z,956.77
2016-07-26T04:12:23.082Z,956.77
2016-07-26T04:13:23.110Z,956.83
2016-07-26T04:14:23.137Z,956.86
2016-07-26T04:15:23.203Z,956.87
2016-07-26T04:16:23.197Z,956.9
2016-07-26T04:17:23.226Z,956.88
2016-07-26T04:18:23.255Z,956.9
2016-07-26T04:20:23.315Z,956.92
2016-07-26T04:21:23.344Z,956.93
2016-07-26T04:22:23.373Z,956.93
2016-07-26T04:23:23.403Z,956.91
2016-07-26T04:24:23.456Z,956.9
2016-07-26T04:25:23.461Z,956.86
2016-07-26T04:26:23.489Z,956.91
2016-07-26T04:27:23.520Z,956.92
2016-07-26T04:28:23.551Z,956.88
2016-07-26T04:29:23.579Z,956.91
2016-07-26T04:30:23.607Z,956.98
2016-07-26T04:31:23.637Z,956.93
2016-07-26T04:32:23.672Z,956.9
2016-07-26T04:33:23.695Z,956.86
2016-07-26T04:35:23.755Z,956.88
2016-07-26T04:36:23.784Z,956.86
2016-07-26T04:37:23.814Z,956.84
2016-07-26T04:38:23.842Z,956.85
2016-07-26T04:39:23.873Z,956.85
2016-07-26T04:40:23.905Z,956.88
2016-07-26T04:41:23.931Z,956.87
2016-07-26T04:42:23.961Z,956.86
2016-07-26T04:43:23.989Z,956.88
2016-07-26T04:44:24.019Z,956.92
2016-07-26T04:45:24.047Z,956.9
2016-07-26T04:46:24.078Z,956.91
2016-07-26T04:47:24.106Z,956.92
2016-07-26T04:48:24.136Z,956.95
2016-07-26T04:50:24.195Z,956.92
2016-07-26T04:51:24.224Z,956.97
2016-07-26T04:52:24.254Z,956.96
2016-07-26T04:53:24.283Z,956.95
2016-07-26T04:54:24.313Z,956.96
2016-07-26T04:55:24.342Z,956.95
2016-07-26T04:56:24.371Z,956.96
2016-07-26T04:57:24.417Z,956.96
2016-07-26T04:58:24.428Z,956.98
2016-07-26T04:59:24.459Z,956.96
2016-07-26T05:00:24.489Z,956.94
2016-07-26T05:01:24.518Z,956.97
2016-07-26T05:02:24.546Z,956.91
2016-07-26T05:03:24.577Z,956.95
2016-07-26T05:05:24.636Z,957.03
2016-07-26T05:06:24.665Z,956.97
2016-07-26T05:07:24.695Z,956.99
2016-07-26T05:08:24.724Z,956.98
2016-07-26T05:09:24.750Z,957.01
2016-07-26T05:10:24.781Z,957.02
2016-07-26T05:11:24.811Z,956.95
2016-07-26T05:12:24.842Z,956.94
2016-07-26T05:13:24.871Z,956.94
2016-07-26T05:14:24.899Z,956.91
2016-07-26T05:15:24.928Z,956.91
2016-07-26T05:16:24.959Z,956.9
2016-07-26T05:17:24.987Z,956.88
2016-07-26T05:18:25.017Z,956.92
2016-07-26T05:20:25.075Z,956.87
2016-07-26T05:21:25.105Z,956.88
2016-07-26T05:22:25.134Z,956.89
2016-07-26T05:23:25.164Z,956.88
2016-07-26T05:24:25.192Z,956.9
2016-07-26T05:25:25.221Z,956.9
2016-07-26T05:26:25.251Z,956.92
2016-07-26T05:27:25.279Z,956.87
2016-07-26T05:28:25.312Z,956.91
2016-07-26T05:29:25.346Z,956.9
2016-07-26T05:30:25.371Z,956.93
2016-07-26T05:31:25.398Z,956.96
2016-07-26T05:32:25.427Z,956.95
2016-07-26T05:34:25.488Z,956.97
2016-07-26T05:35:25.525Z,956.99
2016-07-26T05:36:25.546Z,957.02
2016-07-26T05:37:25.578Z,957
2016-07-26T05:38:25.606Z,957.01
2016-07-26T05:39:25.635Z,956.99
2016-07-26T05:40:25.665Z,957.01
2016-07-26T05:41:25.699Z,956.98
2016-07-26T05:42:25.723Z,956.98
2016-07-26T05:43:25.752Z,956.99
2016-07-26T05:44:25.783Z,957
2016-07-26T05:45:25.812Z,956.93
2016-07-26T05:46:25.842Z,957.04
2016-07-26T05:47:25.872Z,957.03
2016-07-26T05:48:25.902Z,957.02
2016-07-26T05:50:25.962Z,957.04
2016-07-26T05:51:25.990Z,957.04
2016-07-26T05:52:26.021Z,956.99
2016-07-26T05:53:26.051Z,957.04
2016-07-26T05:54:26.090Z,957
2016-07-26T05:55:26.108Z,957.01
2016-07-26T05:56:26.139Z,957.02
2016-07-26T05:57:26.168Z,957.04
2016-07-26T05:58:26.199Z,957.07
2016-07-26T05:59:26.228Z,957.07
2016-07-26T06:00:26.257Z,957.07
2016-07-26T06:01:26.288Z,957.03
2016-07-26T06:02:26.319Z,957.02
2016-07-26T06:03:26.347Z,957.11
2016-07-26T06:05:26.407Z,957.09
2016-07-26T06:06:26.437Z,957.05
2016-07-26T06:07:26.468Z,957.09
2016-07-26T06:08:26.499Z,957.08
2016-07-26T06:09:26.526Z,957.08
2016-07-26T06:10:26.560Z,957.11
2016-07-26T06:11:26.586Z,957.06
2016-07-26T06:12:26.615Z,957.06
2016-07-26T06:13:26.647Z,957.07
2016-07-26T06:14:26.676Z,957.08
2016-07-26T06:15:26.704Z,957.07
2016-07-26T06:16:26.737Z,957.07
2016-07-26T06:17:26.771Z,957.08
2016-07-26T06:18:26.802Z,957.06
2016-07-26T06:20:26.855Z,957.06
2016-07-26T06:21:26.884Z,957.09
2016-07-26T06:22:26.914Z,957.08
2016-07-26T06:23:26.945Z,957.13
2016-07-26T06:24:26.975Z,957.13
2016-07-26T06:25:27.005Z,957.11
2016-07-26T06:26:27.036Z,957.09
2016-07-26T06:27:27.066Z,957.1
2016-07-26T06:28:27.095Z,957.13
2016-07-26T06:29:27.124Z,957.15
2016-07-26T06:30:27.156Z,957.14
2016-07-26T06:31:27.184Z,957.16
2016-07-26T06:32:27.216Z,957.17
2016-07-26T06:33:27.245Z,957.17
2016-07-26T06:34:27.276Z,957.15
2016-07-26T06:35:27.329Z,957.16
2016-07-26T06:36:27.336Z,957.16
2016-07-26T06:37:27.366Z,957.14
2016-07-26T06:38:27.404Z,957.13
2016-07-26T06:39:27.426Z,957.12
2016-07-26T06:40:27.455Z,957.12
2016-07-26T06:41:27.486Z,957.13
2016-07-26T06:42:27.518Z,957.19
2016-07-26T06:43:27.548Z,957.17
2016-07-26T06:44:27.577Z,957.18
2016-07-26T06:45:27.608Z,957.13
2016-07-26T06:46:27.639Z,957.13
2016-07-26T06:47:27.668Z,957.09
2016-07-26T06:48:27.699Z,957.07
2016-07-26T06:49:27.731Z,957.11
2016-07-26T06:50:27.759Z,957.12
2016-07-26T06:51:27.788Z,957.14
2016-07-26T06:52:27.821Z,957.12
2016-07-26T06:53:27.851Z,957.11
2016-07-26T06:54:27.882Z,957.12
2016-07-26T06:55:27.911Z,957.15
2016-07-26T06:56:27.941Z,957.14
2016-07-26T06:57:27.974Z,957.14
2016-07-26T06:58:28.007Z,957.15
2016-07-26T06:59:28.041Z,957.14
2016-07-26T07:00:28.064Z,957.19
2016-07-26T07:01:28.096Z,957.14
2016-07-26T07:02:28.125Z,957.15
2016-07-26T07:03:28.157Z,957.18
2016-07-26T07:04:28.194Z,957.11
2016-07-26T07:05:28.229Z,957.15
2016-07-26T07:06:28.249Z,957.12
2016-07-26T07:08:28.310Z,957.1
2016-07-26T07:09:28.342Z,957.13
2016-07-26T07:10:28.372Z,957.13
2016-07-26T07:11:28.404Z,957.11
2016-07-26T07:12:28.435Z,957.15
2016-07-26T07:13:28.465Z,957.08
2016-07-26T07:14:28.496Z,957.09
2016-07-26T07:15:28.528Z,957.06
2016-07-26T07:16:28.569Z,957.08
2016-07-26T07:17:28.588Z,957.04
2016-07-26T07:18:28.620Z,957.04
2016-07-26T07:19:28.650Z,957.05
2016-07-26T07:20:28.681Z,957.04
2016-07-26T07:21:28.713Z,957.01
2016-07-26T07:22:28.744Z,957.04
2016-07-26T07:23:28.776Z,957.06
2016-07-26T07:24:28.806Z,957.01
2016-07-26T07:25:28.838Z,957.06
2016-07-26T07:26:28.869Z,957.05
2016-07-26T07:27:28.900Z,957.05
2016-07-26T07:28:28.930Z,957.01
2016-07-26T07:29:28.963Z,957.03
2016-07-26T07:30:28.993Z,957.05
2016-07-26T07:31:29.025Z,957.07
2016-07-26T07:32:29.062Z,957
2016-07-26T07:33:29.088Z,956.99
2016-07-26T07:34:29.119Z,956.96
2016-07-26T07:35:29.150Z,957.02
2016-07-26T07:36:29.181Z,956.98
2016-07-26T07:37:29.212Z,957.01
2016-07-26T07:38:29.244Z,956.95
2016-07-26T07:39:29.276Z,956.99
2016-07-26T07:40:29.308Z,956.96
2016-07-26T07:41:29.339Z,956.96
2016-07-26T07:42:29.370Z,956.95
2016-07-26T07:43:29.401Z,956.99
2016-07-26T07:44:29.433Z,956.97
2016-07-26T07:45:29.464Z,957
2016-07-26T07:46:29.495Z,956.97
2016-07-26T07:47:29.526Z,957
2016-07-26T07:48:29.559Z,956.98
2016-07-26T07:50:29.622Z,957.01
2016-07-26T07:51:29.653Z,957.01
2016-07-26T07:52:29.686Z,957.06
2016-07-26T07:53:29.716Z,957.03
2016-07-26T07:54:29.748Z,957.05
2016-07-26T07:55:29.780Z,957.03
2016-07-26T07:56:29.813Z,957.04
2016-07-26T07:57:29.867Z,957.06
2016-07-26T07:58:29.875Z,957.05
2016-07-26T07:59:29.907Z,957.05
2016-07-26T08:00:29.940Z,957.08
2016-07-26T08:01:29.971Z,957.05
2016-07-26T08:02:30.003Z,957.09
2016-07-26T08:03:30.035Z,957.06
2016-07-26T08:04:30.066Z,957.09
2016-07-26T08:05:30.099Z,957.03
2016-07-26T08:06:30.130Z,957.04
2016-07-26T08:07:30.164Z,957.01
2016-07-26T08:08:30.195Z,957.01
2016-07-26T08:09:30.227Z,957
2016-07-26T08:10:30.259Z,957.02
2016-07-26T08:11:30.290Z,956.97
2016-07-26T08:12:30.323Z,957
2016-07-26T08:13:30.354Z,956.98
2016-07-26T08:14:30.394Z,957.01
2016-07-26T08:15:30.418Z,957.01
2016-07-26T08:16:30.449Z,957.01
2016-07-26T08:17:30.483Z,956.98
2016-07-26T08:18:30.515Z,956.96
2016-07-26T08:19:30.548Z,956.97
2016-07-26T08:20:30.579Z,957.01
2016-07-26T08:21:30.612Z,957.03
2016-07-26T08:22:30.644Z,957.03
2016-07-26T08:23:30.675Z,956.97
2016-07-26T08:24:30.707Z,956.98
2016-07-26T08:25:30.739Z,956.97
2016-07-26T08:26:30.771Z,956.91
2016-07-26T08:27:30.803Z,956.89
2016-07-26T08:28:30.835Z,956.86
2016-07-26T08:29:30.866Z,956.88
2016-07-26T08:30:30.899Z,956.86
2016-07-26T08:31:30.931Z,956.9
2016-07-26T08:32:30.963Z,956.88
2016-07-26T08:33:30.996Z,956.87
2016-07-26T08:34:31.028Z,956.9
2016-07-26T08:35:31.060Z,956.83
2016-07-26T08:36:31.097Z,956.87
2016-07-26T08:37:31.125Z,956.89
2016-07-26T08:38:31.157Z,956.9
2016-07-26T08:39:31.197Z,956.89
2016-07-26T08:40:31.223Z,956.87
2016-07-26T08:41:31.254Z,956.87
2016-07-26T08:42:31.286Z,956.84
2016-07-26T08:43:31.321Z,956.85
2016-07-26T08:44:31.352Z,956.86
2016-07-26T08:45:31.385Z,956.85
2016-07-26T08:46:31.418Z,956.87
2016-07-26T08:47:31.450Z,956.84
2016-07-26T08:48:31.480Z,956.87
2016-07-26T08:49:31.513Z,956.81
2016-07-26T08:50:31.547Z,956.82
2016-07-26T08:51:31.579Z,956.82
2016-07-26T08:52:31.610Z,956.84
2016-07-26T08:53:31.643Z,956.8
2016-07-26T08:54:31.675Z,956.82
2016-07-26T08:55:31.760Z,956.78
2016-07-26T08:56:31.741Z,956.81
2016-07-26T08:57:31.773Z,956.88
2016-07-26T08:58:31.804Z,956.83
2016-07-26T08:59:31.837Z,956.89
2016-07-26T09:00:31.868Z,956.85
2016-07-26T09:01:31.901Z,956.87
2016-07-26T09:02:31.935Z,956.85
2016-07-26T09:03:31.963Z,956.86
2016-07-26T09:04:32.001Z,956.85
2016-07-26T09:05:32.031Z,956.83
2016-07-26T09:06:32.062Z,956.77
2016-07-26T09:07:32.094Z,956.84
2016-07-26T09:08:32.126Z,956.79
2016-07-26T09:09:32.159Z,956.83
2016-07-26T09:10:32.190Z,956.8
2016-07-26T09:11:32.223Z,956.78
2016-07-26T09:12:32.278Z,956.81
2016-07-26T09:13:32.288Z,956.79
2016-07-26T09:14:32.319Z,956.81
2016-07-26T09:15:32.352Z,956.8
2016-07-26T09:16:32.385Z,956.75
2016-07-26T09:17:32.416Z,956.77
2016-07-26T09:18:32.448Z,956.77
2016-07-26T09:19:32.483Z,956.74
2016-07-26T09:20:32.513Z,956.71
2016-07-26T09:21:32.545Z,956.69
2016-07-26T09:22:32.577Z,956.69
2016-07-26T09:23:32.610Z,956.72
2016-07-26T09:24:32.642Z,956.78
2016-07-26T09:25:32.673Z,956.81
2016-07-26T09:26:32.706Z,956.77
2016-07-26T09:27:32.739Z,956.82
2016-07-26T09:28:32.769Z,956.8
2016-07-26T09:29:32.805Z,956.81
2016-07-26T09:30:32.834Z,956.83
2016-07-26T09:31:32.869Z,956.82
2016-07-26T09:32:32.899Z,956.83
2016-07-26T09:33:32.932Z,956.82
2016-07-26T09:34:32.965Z,956.85
2016-07-26T09:35:32.997Z,956.84
2016-07-26T09:36:33.028Z,956.8
2016-07-26T09:37:33.082Z,956.82
2016-07-26T09:38:33.094Z,956.86
2016-07-26T09:39:33.125Z,956.88
2016-07-26T09:40:33.157Z,956.88
2016-07-26T09:41:33.191Z,956.89
2016-07-26T09:42:33.223Z,956.91
2016-07-26T09:43:33.260Z,956.94
2016-07-26T09:44:33.284Z,956.95
2016-07-26T09:45:33.320Z,956.95
2016-07-26T09:46:33.350Z,956.9
2016-07-26T09:47:33.381Z,956.9
2016-07-26T09:48:33.413Z,956.93
2016-07-26T09:49:33.447Z,956.94
2016-07-26T09:50:33.477Z,956.97
2016-07-26T09:51:33.510Z,956.95
2016-07-26T09:52:33.543Z,956.96
2016-07-26T09:53:33.574Z,956.99
2016-07-26T09:54:33.621Z,956.99
2016-07-26T09:55:33.638Z,957.02
2016-07-26T09:56:33.670Z,957.03
2016-07-26T09:57:33.702Z,956.99
2016-07-26T09:58:33.734Z,956.98
2016-07-26T09:59:33.765Z,956.97
2016-07-26T10:00:33.798Z,956.99
2016-07-26T10:01:33.828Z,956.96
2016-07-26T10:02:33.860Z,956.92
2016-07-26T10:03:33.892Z,956.92
2016-07-26T10:04:33.925Z,956.88
2016-07-26T10:05:33.955Z,956.87
2016-07-26T10:06:33.988Z,956.85
2016-07-26T10:07:34.019Z,956.83
2016-07-26T10:08:34.051Z,956.87
2016-07-26T10:09:34.082Z,956.83
2016-07-26T10:10:34.116Z,956.85
2016-07-26T10:11:34.145Z,956.82
2016-07-26T10:12:34.176Z,956.85
2016-07-26T10:13:34.207Z,956.83
2016-07-26T10:14:34.672Z,956.83
2016-07-26T10:15:34.270Z,956.81
2016-07-26T10:16:34.405Z,956.86
2016-07-26T10:17:34.332Z,956.84
2016-07-26T10:18:34.364Z,956.87
2016-07-26T10:19:34.414Z,956.87
2016-07-26T10:20:34.425Z,956.86
2016-07-26T10:21:34.457Z,956.86
2016-07-26T10:22:34.488Z,956.88
2016-07-26T10:23:34.521Z,956.78
2016-07-26T10:24:34.550Z,956.82
2016-07-26T10:25:34.582Z,956.8
2016-07-26T10:26:34.613Z,956.76
2016-07-26T10:27:34.645Z,956.77
2016-07-26T10:28:34.674Z,956.79
2016-07-26T10:29:34.703Z,956.72
2016-07-26T10:30:34.734Z,956.73
2016-07-26T10:31:34.766Z,956.75
2016-07-26T10:32:34.797Z,956.76
2016-07-26T10:33:34.828Z,956.76
2016-07-26T10:34:34.858Z,956.77
2016-07-26T10:35:34.910Z,956.76
2016-07-26T10:36:34.919Z,956.78
2016-07-26T10:37:34.951Z,956.75
2016-07-26T10:38:34.981Z,956.78
2016-07-26T10:39:35.012Z,956.77
2016-07-26T10:40:35.043Z,956.73
2016-07-26T10:41:35.074Z,956.74
2016-07-26T10:42:35.104Z,956.73
2016-07-26T10:43:35.140Z,956.72
2016-07-26T10:44:35.167Z,956.73
2016-07-26T10:45:35.197Z,956.71
2016-07-26T10:46:35.228Z,956.7
2016-07-26T10:47:35.260Z,956.71
2016-07-26T10:48:35.429Z,956.71
2016-07-26T10:49:35.321Z,956.68
2016-07-26T10:50:35.352Z,956.65
2016-07-26T10:51:35.479Z,956.65
2016-07-26T10:52:35.415Z,956.64
2016-07-26T10:53:35.446Z,956.62
2016-07-26T10:54:35.477Z,956.61
2016-07-26T10:55:35.508Z,956.59
2016-07-26T10:56:35.539Z,956.61
2016-07-26T10:57:35.570Z,956.6
2016-07-26T10:58:35.603Z,956.6
2016-07-26T10:59:35.634Z,956.58
2016-07-26T11:00:35.667Z,956.56
2016-07-26T11:01:35.696Z,956.57
2016-07-26T11:02:35.731Z,956.55
2016-07-26T11:03:35.771Z,956.51
2016-07-26T11:04:35.789Z,956.49
2016-07-26T11:05:35.821Z,956.51
2016-07-26T11:06:35.852Z,956.51
2016-07-26T11:07:35.883Z,956.52
2016-07-26T11:08:35.933Z,956.52
2016-07-26T11:09:35.945Z,956.5
2016-07-26T11:10:35.978Z,956.49
2016-07-26T11:11:36.009Z,956.44
2016-07-26T11:12:36.040Z,956.49
2016-07-26T11:13:36.071Z,956.4
2016-07-26T11:14:36.102Z,956.4
2016-07-26T11:15:36.164Z,956.4
2016-07-26T11:16:36.165Z,956.39
2016-07-26T11:17:36.197Z,956.3
2016-07-26T11:18:36.228Z,956.25
2016-07-26T11:19:36.260Z,956.31
2016-07-26T11:20:36.293Z,956.26
2016-07-26T11:21:36.323Z,956.28
2016-07-26T11:22:36.353Z,956.26
2016-07-26T11:23:36.443Z,956.22
2016-07-26T11:24:36.434Z,956.23
2016-07-26T11:25:36.460Z,956.21
2016-07-26T11:26:36.478Z,956.26
2016-07-26T11:27:36.510Z,956.24
2016-07-26T11:28:36.545Z,956.19
2016-07-26T11:29:36.572Z,956.25
2016-07-26T11:30:36.819Z,956.28
2016-07-26T11:31:36.750Z,956.29
2016-07-26T11:32:36.668Z,956.29
2016-07-26T11:33:36.698Z,956.31
2016-07-26T11:34:36.730Z,956.34
2016-07-26T11:35:36.762Z,956.37
2016-07-26T11:36:36.794Z,956.35
2016-07-26T11:37:36.826Z,956.31
2016-07-26T11:38:36.857Z,956.32
2016-07-26T11:39:36.888Z,956.29
2016-07-26T11:40:36.919Z,956.22
2016-07-26T11:41:36.954Z,956.21
2016-07-26T11:42:36.984Z,956.17
2016-07-26T11:43:37.014Z,956.14
2016-07-26T11:44:37.046Z,956.12
2016-07-26T11:45:37.077Z,956.14
2016-07-26T11:46:37.110Z,956.1
2016-07-26T11:47:37.140Z,956.13
2016-07-26T11:48:37.173Z,956.13
2016-07-26T11:49:37.204Z,956.18
2016-07-26T11:50:37.238Z,956.14
2016-07-26T11:51:37.267Z,956.16
2016-07-26T11:52:37.299Z,956.12
2016-07-26T11:53:37.330Z,956.16
2016-07-26T11:54:37.369Z,956.13
2016-07-26T11:55:37.394Z,956.11
2016-07-26T11:56:37.427Z,956.09
2016-07-26T11:57:37.458Z,956.13
2016-07-26T11:58:37.496Z,956.13
2016-07-26T11:59:37.534Z,956.17
2016-07-26T12:00:37.553Z,956.18
2016-07-26T12:01:37.583Z,956.22
2016-07-26T12:02:37.626Z,956.26
2016-07-26T12:03:37.647Z,956.24
2016-07-26T12:04:37.677Z,956.19
2016-07-26T12:05:37.708Z,956.22
2016-07-26T12:06:37.759Z,956.23
2016-07-26T12:07:37.773Z,956.2
2016-07-26T12:08:37.804Z,956.17
2016-07-26T12:09:37.835Z,956.16
2016-07-26T12:10:37.867Z,956.12
2016-07-26T12:11:37.899Z,956.14
2016-07-26T12:12:37.930Z,956.11
2016-07-26T12:13:37.962Z,956.13
2016-07-26T12:14:37.994Z,956.1
2016-07-26T12:15:38.025Z,956.14
2016-07-26T12:16:38.055Z,956.12
2016-07-26T12:17:38.086Z,956.12
2016-07-26T12:18:38.119Z,956.16
2016-07-26T12:19:38.150Z,956.2
2016-07-26T12:20:38.181Z,956.22
2016-07-26T12:21:38.212Z,956.21
2016-07-26T12:22:38.243Z,956.23
2016-07-26T12:23:38.285Z,956.24
2016-07-26T12:24:38.305Z,956.24
2016-07-26T12:25:38.342Z,956.29
2016-07-26T12:26:38.369Z,956.27
2016-07-26T12:27:38.399Z,956.29
2016-07-26T12:28:38.430Z,956.29
2016-07-26T12:29:38.463Z,956.31
2016-07-26T12:30:38.494Z,956.36
2016-07-26T12:31:38.525Z,956.28
2016-07-26T12:32:38.556Z,956.3
2016-07-26T12:33:38.587Z,956.29
2016-07-26T12:34:38.619Z,956.3
2016-07-26T12:35:38.651Z,956.35
2016-07-26T12:36:38.681Z,956.43
2016-07-26T12:37:38.713Z,956.46
2016-07-26T12:38:38.743Z,956.53
2016-07-26T12:39:38.777Z,956.52
2016-07-26T12:40:38.807Z,956.52
2016-07-26T12:41:38.839Z,956.6
2016-07-26T12:42:38.868Z,956.69